Time;durP1;ratioP1;P1;durP2;ratioP2;P2;SDS_P1;SDS_P2;PMS_P1;PMS_P2;Temp;Humidity;BMP_temperature;BMP_pressure;BME280_temperature;BME280_humidity;BME280_pressure;Samples;Min_cycle;Max_cycle;Signal;HPM_P1;HPM_P2
2022/01/25 00:31:09;;;;;;;220.70;86.13;;;;;;;;;;5075097;28;20045;-51
2022/01/25 00:33:36;;;;;;;227.25;90.65;;;;;;;;;;5074826;28;20040;-50
2022/01/25 00:36:03;;;;;;;231.18;85.88;;;;;;;;;;5074862;28;20527;-50
2022/01/25 00:38:29;;;;;;;227.05;88.03;;;;;;;;;;5074760;28;20016;-49
2022/01/25 00:40:55;;;;;;;229.43;92.72;;;;;;;;;;5074701;28;20031;-50
2022/01/25 00:43:26;;;;;;;255.38;98.53;;;;;;;;;;5074978;28;20421;-47
2022/01/25 00:45:54;;;;;;;245.48;92.07;;;;;;;;;;5074744;28;20468;-50
2022/01/25 00:48:31;;;;;;;257.15;94.57;;;;;;;;;;5074598;28;20080;-51
2022/01/25 00:51:19;;;;;;;273.05;98.53;;;;;;;;;;5074363;28;20380;-48
2022/01/25 00:54:03;;;;;;;241.07;92.38;;;;;;;;;;5074507;28;20465;-49
2022/01/25 00:56:31;;;;;;;230.18;84.93;;;;;;;;;;5074721;28;20391;-48
2022/01/25 00:58:58;;;;;;;226.95;83.22;;;;;;;;;;5074234;28;20078;-48
2022/01/25 01:01:24;;;;;;;208.02;79.43;;;;;;;;;;5074296;28;20112;-49
2022/01/25 01:03:50;;;;;;;191.73;80.10;;;;;;;;;;5074544;28;20028;-49
2022/01/25 01:06:17;;;;;;;199.35;77.82;;;;;;;;;;5074311;28;20024;-48
2022/01/25 01:08:44;;;;;;;201.57;77.15;;;;;;;;;;5074208;28;20063;-49
2022/01/25 01:11:15;;;;;;;187.90;74.75;;;;;;;;;;5074182;28;20035;-49
2022/01/25 01:16:50;;;;;;;184.55;72.95;;;;;;;;;;5074324;28;20044;-49
2022/01/25 01:46:16;;;;;;;191.40;76.45;;;;;;;;;;5073464;28;20052;-48
2022/01/25 01:48:32;;;;;;;178.32;71.50;;;;;;;;;;5073229;28;20098;-48
2022/01/25 01:51:06;;;;;;;171.73;71.13;;;;;;;;;;5073411;28;20040;-47
2022/01/25 01:53:33;;;;;;;170.48;70.30;;;;;;;;;;5073570;28;20111;-49
2022/01/25 01:56:00;;;;;;;178.15;69.47;;;;;;;;;;5073323;28;20032;-49
2022/01/25 01:58:26;;;;;;;177.98;68.60;;;;;;;;;;5073150;28;20137;-48
2022/01/25 02:00:52;;;;;;;184.90;71.50;;;;;;;;;;5073420;28;20499;-54
2022/01/25 02:03:18;;;;;;;187.02;73.22;;;;;;;;;;5072658;28;20032;-47
2022/01/25 02:05:44;;;;;;;200.93;76.05;;;;;;;;;;5073338;28;20453;-51
2022/01/25 02:08:10;;;;;;;213.10;80.32;;;;;;;;;;5073243;28;20028;-50
2022/01/25 02:10:37;;;;;;;204.93;77.15;;;;;;;;;;5073150;28;20032;-49
2022/01/25 02:13:07;;;;;;;203.95;77.80;;;;;;;;;;5073077;28;20473;-49
2022/01/25 02:15:35;;;;;;;196.38;74.40;;;;;;;;;;5073134;28;20024;-51
2022/01/25 02:23:31;;;;;;;192.93;72.00;;;;;;;;;;5072932;28;20070;-49
2022/01/25 02:26:01;;;;;;;187.98;71.30;;;;;;;;;;5073185;28;20388;-49
2022/01/25 02:28:29;;;;;;;181.52;71.20;;;;;;;;;;5072832;28;20052;-49
2022/01/25 02:30:56;;;;;;;183.50;71.32;;;;;;;;;;5072935;28;20043;-49
2022/01/25 02:33:23;;;;;;;192.88;72.28;;;;;;;;;;5072957;28;20047;-49
2022/01/25 02:35:49;;;;;;;176.93;70.75;;;;;;;;;;5072858;28;20028;-49
2022/01/25 02:38:20;;;;;;;175.75;68.20;;;;;;;;;;5072796;28;20432;-49
2022/01/25 02:40:46;;;;;;;171.03;66.30;;;;;;;;;;5072925;28;20017;-49
2022/01/25 02:43:15;;;;;;;171.73;64.95;;;;;;;;;;5073207;28;20257;-49
2022/01/25 02:45:45;;;;;;;150.18;59.47;;;;;;;;;;5075858;28;20366;-49
2022/01/25 02:48:30;;;;;;;140.98;57.53;;;;;;;;;;5077014;28;20448;-49
2022/01/25 02:50:57;;;;;;;137.82;53.47;;;;;;;;;;5076747;28;20029;-48
2022/01/25 02:53:23;;;;;;;131.00;49.85;;;;;;;;;;5076878;28;20016;-48
2022/01/25 02:55:49;;;;;;;105.07;45.58;;;;;;;;;;5076971;28;20028;-51
2022/01/25 02:58:15;;;;;;;109.38;47.22;;;;;;;;;;5075580;28;20119;-47
2022/01/25 03:00:42;;;;;;;103.60;45.63;;;;;;;;;;5076835;28;20033;-47
2022/01/25 03:03:08;;;;;;;108.47;46.78;;;;;;;;;;5076519;28;20024;-48
2022/01/25 03:05:34;;;;;;;104.10;44.55;;;;;;;;;;5076770;28;20033;-49
2022/01/25 03:08:00;;;;;;;104.93;45.75;;;;;;;;;;5075328;28;20020;-48
2022/01/25 03:10:37;;;;;;;106.78;46.13;;;;;;;;;;5076564;28;20499;-48
2022/01/25 03:13:05;;;;;;;114.68;48.65;;;;;;;;;;5076510;28;20025;-49
2022/01/25 03:18:37;;;;;;;121.05;51.15;;;;;;;;;;5076155;28;20052;-48
2022/01/25 03:21:15;;;;;;;117.88;49.35;;;;;;;;;;5076134;28;20052;-48
2022/01/25 03:23:42;;;;;;;117.32;49.97;;;;;;;;;;5076413;28;20420;-48
2022/01/25 03:26:08;;;;;;;111.07;48.72;;;;;;;;;;5076461;28;20028;-49
2022/01/25 03:28:34;;;;;;;113.18;46.50;;;;;;;;;;5075912;28;20048;-48
2022/01/25 03:31:00;;;;;;;119.22;49.72;;;;;;;;;;5076015;28;20503;-48
2022/01/25 03:33:29;;;;;;;118.47;48.70;;;;;;;;;;5076076;28;20029;-48
2022/01/25 03:35:55;;;;;;;115.95;49.20;;;;;;;;;;5076337;28;20446;-48
2022/01/25 03:38:21;;;;;;;119.78;49.00;;;;;;;;;;5075969;28;20488;-48
2022/01/25 03:40:48;;;;;;;118.05;49.83;;;;;;;;;;5075893;28;20039;-49
2022/01/25 03:43:15;;;;;;;127.50;51.50;;;;;;;;;;5075970;28;20468;-49
2022/01/25 03:45:46;;;;;;;117.60;50.20;;;;;;;;;;5075807;28;20024;-51
2022/01/25 03:50:39;;;;;;;131.30;50.88;;;;;;;;;;5075615;28;20123;-49
2022/01/25 03:53:06;;;;;;;122.70;51.13;;;;;;;;;;5075692;28;20388;-50
2022/01/25 03:55:32;;;;;;;120.68;49.40;;;;;;;;;;5075763;28;20097;-50
2022/01/25 03:57:58;;;;;;;125.97;51.80;;;;;;;;;;5073352;28;20477;-49
2022/01/25 04:00:24;;;;;;;130.90;53.80;;;;;;;;;;5075439;28;20065;-49
2022/01/25 04:02:56;;;;;;;125.40;52.80;;;;;;;;;;5075669;28;20028;-48
2022/01/25 04:05:34;;;;;;;131.40;53.40;;;;;;;;;;5075395;28;20016;-48
2022/01/25 04:08:00;;;;;;;137.07;52.78;;;;;;;;;;5075724;28;20373;-48
2022/01/25 04:10:26;;;;;;;128.73;51.85;;;;;;;;;;5075407;28;20032;-49
2022/01/25 04:12:54;;;;;;;141.77;55.25;;;;;;;;;;5075310;28;20025;-50
2022/01/25 04:15:23;;;;;;;136.48;53.30;;;;;;;;;;5075304;28;20043;-50
2022/01/25 04:17:56;;;;;;;136.88;55.30;;;;;;;;;;5075476;28;20028;-48
2022/01/25 04:20:27;;;;;;;142.70;58.10;;;;;;;;;;5075286;28;20074;-46
2022/01/25 04:25:38;;;;;;;143.00;57.45;;;;;;;;;;5075295;28;20443;-47
2022/01/25 04:28:04;;;;;;;164.68;59.55;;;;;;;;;;5074722;28;20067;-46
2022/01/25 04:30:30;;;;;;;154.30;57.35;;;;;;;;;;5075091;28;20119;-47
2022/01/25 04:33:05;;;;;;;142.73;53.88;;;;;;;;;;5075017;28;20021;-49
2022/01/25 04:49:14;;;;;;;159.23;62.30;;;;;;;;;;5052941;28;20036;-48
2022/01/25 04:55:07;;;;;;;165.48;61.63;;;;;;;;;;5052401;28;20117;-50
2022/01/25 05:02:18;;;;;;;146.50;56.88;;;;;;;;;;5052270;28;20060;-53
2022/01/25 05:04:56;;;;;;;132.90;54.47;;;;;;;;;;5052140;28;20041;-43
2022/01/25 05:07:33;;;;;;;147.32;57.25;;;;;;;;;;5052063;28;20032;-50
2022/01/25 05:10:02;;;;;;;153.77;57.60;;;;;;;;;;5051604;28;20037;-50
2022/01/25 05:12:43;;;;;;;148.48;58.80;;;;;;;;;;5052035;28;20178;-50
2022/01/25 05:15:23;;;;;;;154.15;57.75;;;;;;;;;;5052070;28;20033;-50
2022/01/25 05:18:09;;;;;;;165.20;59.83;;;;;;;;;;5062989;28;20059;-50
2022/01/25 05:23:19;;;;;;;144.35;57.05;;;;;;;;;;5074263;28;20040;-51
2022/01/25 05:25:45;;;;;;;146.63;61.78;;;;;;;;;;5073776;28;20062;-44
2022/01/25 05:28:11;;;;;;;146.13;64.20;;;;;;;;;;5073573;28;20504;-45
2022/01/25 05:30:38;;;;;;;169.23;79.07;;;;;;;;;;5072450;28;20040;-41
2022/01/25 05:33:04;;;;;;;175.27;77.03;;;;;;;;;;5074052;28;20385;-46
2022/01/25 05:35:30;;;;;;;151.38;62.45;;;;;;;;;;5073499;28;20020;-44
2022/01/25 05:37:56;;;;;;;162.70;65.90;;;;;;;;;;5073728;28;20027;-45
2022/01/25 05:48:14;;;;;;;141.73;55.50;;;;;;;;;;5073765;28;20060;-49
2022/01/25 05:50:40;;;;;;;144.93;56.63;;;;;;;;;;5073289;28;20509;-45
2022/01/25 05:53:06;;;;;;;124.05;47.08;;;;;;;;;;5073364;28;20460;-50
2022/01/25 05:55:33;;;;;;;101.55;43.80;;;;;;;;;;5073295;28;20016;-45
2022/01/25 05:57:59;;;;;;;100.97;43.30;;;;;;;;;;5073150;28;20488;-54
2022/01/25 06:00:25;;;;;;;99.72;41.58;;;;;;;;;;5073423;28;20028;-55
2022/01/25 06:02:54;;;;;;;104.63;43.42;;;;;;;;;;5073291;28;20042;-45
2022/01/25 06:05:23;;;;;;;107.30;44.50;;;;;;;;;;5073206;28;20016;-44
2022/01/25 06:07:49;;;;;;;102.88;42.20;;;;;;;;;;5073457;28;20028;-43
2022/01/25 06:10:15;;;;;;;88.88;39.08;;;;;;;;;;5073292;28;20040;-46
2022/01/25 06:12:42;;;;;;;99.43;40.75;;;;;;;;;;5073458;28;20380;-44
2022/01/25 06:15:09;;;;;;;96.20;39.80;;;;;;;;;;5073248;28;20047;-44
2022/01/25 06:17:35;;;;;;;101.07;41.53;;;;;;;;;;5073122;28;20024;-44
2022/01/25 06:20:03;;;;;;;134.95;52.85;;;;;;;;;;5072685;28;20029;-45
2022/01/25 06:22:29;;;;;;;123.65;50.47;;;;;;;;;;5073064;28;20153;-45
2022/01/25 06:24:56;;;;;;;106.13;44.72;;;;;;;;;;5072869;28;20035;-45
2022/01/25 06:27:22;;;;;;;103.53;46.30;;;;;;;;;;5072580;28;20024;-44
2022/01/25 06:29:50;;;;;;;241.77;82.80;;;;;;;;;;5072569;28;20045;-47
2022/01/25 06:32:16;;;;;;;296.90;100.80;;;;;;;;;;5072810;28;20048;-46
2022/01/25 06:34:46;;;;;;;413.33;138.32;;;;;;;;;;5072947;28;20035;-46
2022/01/25 06:37:13;;;;;;;597.20;248.38;;;;;;;;;;5073038;28;20491;-49
2022/01/25 06:39:40;;;;;;;339.95;129.30;;;;;;;;;;5072951;28;20031;-46
2022/01/25 06:42:09;;;;;;;163.50;66.07;;;;;;;;;;5072855;28;20119;-47
2022/01/25 06:44:37;;;;;;;109.80;47.22;;;;;;;;;;5072768;28;20035;-47
2022/01/25 06:47:04;;;;;;;85.00;41.80;;;;;;;;;;5072672;28;20028;-44
2022/01/25 06:49:30;;;;;;;85.75;40.08;;;;;;;;;;5072780;28;20103;-46
2022/01/25 06:51:56;;;;;;;87.25;42.60;;;;;;;;;;5072986;28;20049;-46
2022/01/25 06:54:22;;;;;;;89.10;45.55;;;;;;;;;;5072717;28;20381;-47
2022/01/25 06:56:48;;;;;;;88.20;45.85;;;;;;;;;;5072595;28;20032;-45
2022/01/25 06:59:15;;;;;;;87.00;46.53;;;;;;;;;;5072501;28;20060;-46
2022/01/25 07:01:41;;;;;;;92.80;49.88;;;;;;;;;;5072620;28;20029;-45
2022/01/25 07:04:08;;;;;;;123.85;70.55;;;;;;;;;;5072693;28;20028;-46
2022/01/25 07:06:34;;;;;;;139.13;76.45;;;;;;;;;;5072517;28;20399;-45
2022/01/25 07:09:02;;;;;;;124.30;65.07;;;;;;;;;;5072574;28;20025;-43
2022/01/25 07:11:30;;;;;;;121.72;66.88;;;;;;;;;;5070734;28;20154;-51
2022/01/25 07:13:57;;;;;;;148.70;84.60;;;;;;;;;;5072444;28;20013;-48
2022/01/25 07:16:24;;;;;;;159.00;86.00;;;;;;;;;;5072330;28;20426;-47
2022/01/25 07:18:50;;;;;;;166.23;90.85;;;;;;;;;;5072519;28;20074;-49
2022/01/25 07:21:19;;;;;;;126.43;67.88;;;;;;;;;;5072405;28;20024;-48
2022/01/25 07:23:45;;;;;;;133.85;71.70;;;;;;;;;;5072381;28;20035;-48
2022/01/25 07:26:11;;;;;;;116.28;66.72;;;;;;;;;;5072425;28;20111;-48
2022/01/25 07:28:38;;;;;;;136.98;76.38;;;;;;;;;;5072160;28;20044;-49
2022/01/25 07:31:06;;;;;;;112.25;69.28;;;;;;;;;;5072310;28;20071;-48
2022/01/25 07:33:33;;;;;;;117.28;73.60;;;;;;;;;;5076284;28;20021;-52
2022/01/25 07:36:01;;;;;;;116.45;69.55;;;;;;;;;;5075954;28;20035;-50
2022/01/25 07:38:27;;;;;;;116.50;70.63;;;;;;;;;;5064276;28;20615;-49
2022/01/25 07:40:53;;;;;;;104.40;66.80;;;;;;;;;;5055017;28;20056;-50
2022/01/25 07:43:19;;;;;;;137.20;84.43;;;;;;;;;;5055441;28;20083;-49
2022/01/25 07:45:53;;;;;;;140.15;86.93;;;;;;;;;;5055299;28;20024;-50
2022/01/25 07:48:20;;;;;;;114.63;67.97;;;;;;;;;;5055341;28;20025;-52
2022/01/25 07:50:46;;;;;;;107.28;70.65;;;;;;;;;;5055016;28;20040;-53
2022/01/25 07:53:12;;;;;;;89.95;59.97;;;;;;;;;;5055207;28;20473;-51
2022/01/25 07:55:38;;;;;;;82.35;56.55;;;;;;;;;;5055021;28;20119;-52
2022/01/25 07:58:05;;;;;;;96.22;61.95;;;;;;;;;;5055117;28;20538;-51
2022/01/25 08:00:31;;;;;;;87.20;56.85;;;;;;;;;;5054793;28;20029;-52
2022/01/25 08:02:57;;;;;;;90.15;58.10;;;;;;;;;;5054654;28;20021;-51
2022/01/25 08:05:25;;;;;;;93.25;57.58;;;;;;;;;;5054939;28;20017;-53
2022/01/25 08:07:51;;;;;;;75.72;52.47;;;;;;;;;;5054921;28;20181;-49
2022/01/25 08:10:20;;;;;;;73.07;47.90;;;;;;;;;;5054136;28;20032;-53
2022/01/25 08:12:47;;;;;;;68.20;45.00;;;;;;;;;;5054983;28;20489;-58
2022/01/25 08:15:18;;;;;;;61.20;40.20;;;;;;;;;;5055473;28;20396;-56
2022/01/25 08:17:44;;;;;;;59.55;42.63;;;;;;;;;;5054763;28;20116;-57
2022/01/25 08:20:11;;;;;;;54.50;39.55;;;;;;;;;;5054866;28;20480;-52
2022/01/25 08:22:37;;;;;;;63.53;40.25;;;;;;;;;;5054653;28;20429;-52
2022/01/25 08:25:05;;;;;;;60.05;42.72;;;;;;;;;;5054935;28;20031;-52
2022/01/25 08:27:31;;;;;;;60.83;41.08;;;;;;;;;;5054324;28;20020;-56
2022/01/25 08:29:57;;;;;;;52.50;38.00;;;;;;;;;;5051408;28;20656;-56
2022/01/25 08:32:23;;;;;;;49.03;33.00;;;;;;;;;;5053784;28;20059;-56
2022/01/25 08:34:49;;;;;;;45.33;31.02;;;;;;;;;;5054542;28;20017;-55
2022/01/25 08:37:16;;;;;;;44.92;30.48;;;;;;;;;;5054610;28;20104;-56
2022/01/25 08:39:47;;;;;;;47.67;32.25;;;;;;;;;;5054400;28;20036;-54
2022/01/25 08:42:14;;;;;;;44.97;30.25;;;;;;;;;;5054252;28;20035;-54
2022/01/25 08:44:40;;;;;;;45.95;30.98;;;;;;;;;;5054554;28;20103;-48
2022/01/25 08:47:07;;;;;;;45.65;29.60;;;;;;;;;;5054410;28;20013;-49
2022/01/25 08:49:36;;;;;;;70.25;49.92;;;;;;;;;;5053043;28;20048;-55
2022/01/25 08:52:05;;;;;;;49.83;33.70;;;;;;;;;;5053979;28;20047;-55
2022/01/25 08:54:31;;;;;;;44.15;31.50;;;;;;;;;;5054250;28;20035;-55
2022/01/25 08:56:57;;;;;;;38.53;27.98;;;;;;;;;;5054139;28;20060;-54
2022/01/25 08:59:23;;;;;;;73.72;37.85;;;;;;;;;;5053906;28;20469;-50
2022/01/25 09:01:50;;;;;;;68.55;46.83;;;;;;;;;;5054097;28;20017;-60
2022/01/25 09:04:16;;;;;;;45.53;32.47;;;;;;;;;;5054001;28;20024;-53
2022/01/25 09:06:44;;;;;;;54.35;37.63;;;;;;;;;;5052496;28;20380;-55
2022/01/25 09:09:11;;;;;;;51.30;34.22;;;;;;;;;;5054067;28;20051;-56
2022/01/25 09:11:38;;;;;;;38.13;26.95;;;;;;;;;;5053673;28;20108;-53
2022/01/25 09:14:05;;;;;;;36.60;25.60;;;;;;;;;;5053789;28;20025;-52
2022/01/25 09:16:32;;;;;;;30.88;23.55;;;;;;;;;;5053763;28;20021;-50
2022/01/25 09:18:58;;;;;;;38.03;24.63;;;;;;;;;;5053724;28;20381;-50
2022/01/25 09:21:24;;;;;;;35.92;24.25;;;;;;;;;;5053547;28;20104;-52
2022/01/25 09:23:50;;;;;;;35.85;25.70;;;;;;;;;;5053756;28;20021;-51
2022/01/25 09:26:19;;;;;;;33.47;23.67;;;;;;;;;;5054264;28;20021;-53
2022/01/25 09:28:53;;;;;;;37.13;25.20;;;;;;;;;;5053586;28;20476;-57
2022/01/25 09:31:19;;;;;;;50.13;34.85;;;;;;;;;;5053864;28;20052;-57
2022/01/25 09:33:46;;;;;;;31.50;24.95;;;;;;;;;;5053373;28;20063;-55
2022/01/25 09:36:15;;;;;;;52.17;32.35;;;;;;;;;;5053193;28;20036;-55
2022/01/25 09:38:43;;;;;;;61.47;42.35;;;;;;;;;;5053656;28;20017;-54
2022/01/25 09:41:12;;;;;;;40.75;29.85;;;;;;;;;;5053729;28;20029;-56
2022/01/25 09:43:38;;;;;;;35.58;25.60;;;;;;;;;;5053716;28;20023;-54
2022/01/25 09:46:06;;;;;;;44.63;30.65;;;;;;;;;;5053616;28;20029;-54
2022/01/25 09:48:32;;;;;;;64.65;34.33;;;;;;;;;;5053408;28;20025;-53
2022/01/25 09:50:59;;;;;;;52.42;32.72;;;;;;;;;;5053176;28;20029;-56
2022/01/25 09:53:26;;;;;;;50.08;32.22;;;;;;;;;;5053458;28;20017;-54
2022/01/25 09:55:52;;;;;;;47.85;34.75;;;;;;;;;;5052940;28;20032;-51
2022/01/25 09:58:18;;;;;;;51.33;35.13;;;;;;;;;;5053174;28;20641;-53
2022/01/25 10:00:46;;;;;;;34.97;25.02;;;;;;;;;;5053383;28;20033;-58
2022/01/25 10:03:20;;;;;;;33.95;24.73;;;;;;;;;;5051937;28;20387;-56
2022/01/25 10:05:48;;;;;;;31.88;24.83;;;;;;;;;;5052993;28;20029;-50
2022/01/25 10:08:15;;;;;;;36.42;27.83;;;;;;;;;;5053119;28;20021;-56
2022/01/25 10:10:45;;;;;;;39.65;30.80;;;;;;;;;;5053132;28;20048;-51
2022/01/25 10:13:40;;;;;;;31.20;21.80;;;;;;;;;;5052613;28;20044;-57
2022/01/25 10:16:10;;;;;;;32.67;24.30;;;;;;;;;;5029287;28;20324;-58
2022/01/25 10:18:38;;;;;;;28.15;22.98;;;;;;;;;;5011262;28;20069;-60
2022/01/25 10:21:04;;;;;;;36.42;25.75;;;;;;;;;;5011670;28;20753;-59
2022/01/25 10:23:31;;;;;;;26.10;19.88;;;;;;;;;;5012259;28;20042;-56
2022/01/25 10:26:01;;;;;;;32.53;22.23;;;;;;;;;;5012895;28;20048;-56
2022/01/25 10:28:30;;;;;;;25.35;18.17;;;;;;;;;;5012536;28;20064;-58
2022/01/25 10:31:01;;;;;;;22.92;16.83;;;;;;;;;;5011864;28;20033;-57
2022/01/25 10:33:33;;;;;;;24.52;18.75;;;;;;;;;;5012878;28;20044;-58
2022/01/25 10:36:01;;;;;;;26.65;19.73;;;;;;;;;;5012428;28;20084;-56
2022/01/25 10:38:29;;;;;;;27.48;19.33;;;;;;;;;;5012014;28;20029;-54
2022/01/25 10:40:58;;;;;;;32.72;20.42;;;;;;;;;;5012801;28;20060;-53
2022/01/25 10:43:25;;;;;;;22.88;16.63;;;;;;;;;;5012881;28;20074;-55
2022/01/25 10:46:24;;;;;;;27.58;19.88;;;;;;;;;;5012591;28;20087;-55
2022/01/25 10:49:01;;;;;;;37.28;23.63;;;;;;;;;;4973882;28;20157;-54
2022/01/25 10:51:45;;;;;;;44.47;26.40;;;;;;;;;;4972836;28;20094;-58
2022/01/25 10:54:11;;;;;;;34.50;20.60;;;;;;;;;;4972992;28;20026;-56
2022/01/25 10:56:39;;;;;;;35.45;23.45;;;;;;;;;;4973481;28;20030;-52
2022/01/25 10:59:05;;;;;;;26.67;17.73;;;;;;;;;;4973087;28;20070;-53
2022/01/25 11:01:33;;;;;;;33.80;21.15;;;;;;;;;;4973007;28;20031;-55
2022/01/25 11:04:25;;;;;;;24.40;17.27;;;;;;;;;;4973438;28;20039;-53
2022/01/25 11:06:55;;;;;;;35.38;19.52;;;;;;;;;;4974327;28;20081;-54
2022/01/25 11:09:24;;;;;;;48.22;32.25;;;;;;;;;;4976783;28;20030;-54
2022/01/25 11:11:54;;;;;;;38.28;23.88;;;;;;;;;;4975883;28;20043;-56
2022/01/25 11:17:07;;;;;;;29.75;18.63;;;;;;;;;;4994899;28;20398;-55
2022/01/25 11:19:33;;;;;;;40.65;21.60;;;;;;;;;;4994881;28;20029;-57
2022/01/25 11:21:59;;;;;;;29.63;17.52;;;;;;;;;;4994738;28;20522;-56
2022/01/25 11:24:29;;;;;;;47.97;21.50;;;;;;;;;;5023304;28;20041;-52
2022/01/25 11:26:55;;;;;;;29.58;18.73;;;;;;;;;;5055503;28;20075;-55
2022/01/25 11:29:21;;;;;;;37.53;21.60;;;;;;;;;;5055449;28;20041;-54
2022/01/25 11:31:57;;;;;;;31.80;20.48;;;;;;;;;;5055423;28;20041;-54
2022/01/25 11:34:26;;;;;;;27.23;17.00;;;;;;;;;;5055655;28;20013;-54
2022/01/25 11:36:56;;;;;;;36.90;21.67;;;;;;;;;;5055434;28;20025;-54
2022/01/25 11:39:24;;;;;;;32.33;19.75;;;;;;;;;;5055370;28;20025;-54
2022/01/25 11:41:51;;;;;;;57.35;31.15;;;;;;;;;;5054277;28;20021;-56
2022/01/25 11:44:26;;;;;;;65.28;36.25;;;;;;;;;;5055315;28;20021;-55
2022/01/25 11:46:55;;;;;;;48.35;27.70;;;;;;;;;;5055522;28;20029;-55
2022/01/25 11:49:22;;;;;;;78.03;41.05;;;;;;;;;;5052623;28;20021;-55
2022/01/25 11:52:07;;;;;;;91.07;48.42;;;;;;;;;;5055093;28;20116;-57
2022/01/25 11:54:35;;;;;;;37.25;21.02;;;;;;;;;;5054290;28;20033;-52
2022/01/25 11:57:21;;;;;;;26.73;17.40;;;;;;;;;;5052424;28;20033;-52
2022/01/25 11:59:57;;;;;;;25.63;17.15;;;;;;;;;;5053405;28;20472;-57
2022/01/25 12:02:43;;;;;;;29.77;18.55;;;;;;;;;;5052746;28;20503;-54
2022/01/25 12:05:10;;;;;;;29.77;17.15;;;;;;;;;;5035581;28;20044;-52
2022/01/25 12:07:42;;;;;;;28.40;16.80;;;;;;;;;;5035290;28;20029;-51
2022/01/25 12:10:27;;;;;;;28.50;16.98;;;;;;;;;;5035454;28;20025;-57
2022/01/25 12:13:11;;;;;;;30.58;17.92;;;;;;;;;;5035434;28;20431;-55
2022/01/25 12:15:37;;;;;;;35.63;19.85;;;;;;;;;;5035418;28;20033;-60
2022/01/25 12:18:04;;;;;;;28.23;17.38;;;;;;;;;;5034673;28;20148;-56
2022/01/25 12:20:30;;;;;;;32.30;20.23;;;;;;;;;;5046557;28;20059;-53
2022/01/25 12:23:06;;;;;;;30.25;18.13;;;;;;;;;;5051930;28;20027;-59
2022/01/25 12:25:48;;;;;;;36.03;20.23;;;;;;;;;;5053282;28;20025;-57
2022/01/25 12:28:31;;;;;;;33.40;16.88;;;;;;;;;;5054314;28;20040;-54
2022/01/25 12:31:00;;;;;;;31.38;18.25;;;;;;;;;;5051996;28;20036;-57
2022/01/25 12:33:32;;;;;;;40.15;20.38;;;;;;;;;;5054483;28;20110;-53
2022/01/25 12:36:03;;;;;;;;;;;;;;;;;;5054961;28;20025;-54
2022/01/25 12:38:44;;;;;;;56.65;25.50;;;;;;;;;;5054533;28;19915;-59
2022/01/25 12:41:21;;;;;;;53.03;24.60;;;;;;;;;;5053471;28;20032;-54
2022/01/25 12:43:53;;;;;;;41.22;21.50;;;;;;;;;;5053109;28;20122;-53
2022/01/25 12:46:41;;;;;;;42.40;22.23;;;;;;;;;;5052046;28;20017;-53
2022/01/25 12:49:16;;;;;;;38.08;20.13;;;;;;;;;;5052877;28;20025;-52
2022/01/25 12:51:44;;;;;;;42.60;20.92;;;;;;;;;;5051971;28;20025;-53
2022/01/25 12:54:11;;;;;;;41.05;21.13;;;;;;;;;;5053695;28;20013;-52
2022/01/25 12:56:46;;;;;;;31.85;18.55;;;;;;;;;;5054082;28;20075;-52
2022/01/25 12:59:14;;;;;;;38.35;18.33;;;;;;;;;;5052428;28;20021;-53
2022/01/25 13:01:42;;;;;;;33.15;18.33;;;;;;;;;;5053714;28;20037;-53
2022/01/25 13:04:13;;;;;;;33.80;19.40;;;;;;;;;;5053986;28;20029;-53
2022/01/25 13:06:46;;;;;;;42.38;19.58;;;;;;;;;;5054412;28;20024;-52
2022/01/25 13:09:20;;;;;;;40.33;18.95;;;;;;;;;;5054507;28;20432;-52
2022/01/25 13:17:03;;;;;;;46.95;25.35;;;;;;;;;;5054707;28;20070;-57
2022/01/25 13:19:40;;;;;;;51.85;27.83;;;;;;;;;;5054306;28;20032;-54
2022/01/25 13:22:10;;;;;;;46.90;24.65;;;;;;;;;;5053993;28;20021;-52
2022/01/25 13:24:45;;;;;;;45.97;22.83;;;;;;;;;;5054161;28;20484;-53
2022/01/25 13:27:14;;;;;;;39.90;18.98;;;;;;;;;;5052384;28;20040;-54
2022/01/25 13:32:33;;;;;;;39.17;21.75;;;;;;;;;;5053959;28;20044;-53
2022/01/25 13:35:04;;;;;;;34.10;19.10;;;;;;;;;;5053818;28;20104;-52
2022/01/25 13:37:31;;;;;;;38.55;21.00;;;;;;;;;;5053897;28;20380;-54
2022/01/25 13:39:59;;;;;;;38.63;21.67;;;;;;;;;;5053653;28;20025;-57
2022/01/25 13:48:08;;;;;;;36.20;20.73;;;;;;;;;;5031698;28;20255;-53
2022/01/25 13:50:36;;;;;;;40.28;21.73;;;;;;;;;;5030843;28;20045;-56
2022/01/25 13:53:04;;;;;;;36.72;20.27;;;;;;;;;;5030775;28;20039;-56
2022/01/25 13:55:30;;;;;;;38.22;20.65;;;;;;;;;;5030908;28;20060;-54
2022/01/25 13:57:57;;;;;;;40.90;21.80;;;;;;;;;;5030563;28;20040;-57
2022/01/25 14:00:26;;;;;;;40.58;22.48;;;;;;;;;;5030813;28;20438;-53
2022/01/25 14:02:54;;;;;;;45.90;23.70;;;;;;;;;;5030822;28;20052;-56
2022/01/25 14:05:20;;;;;;;76.13;34.45;;;;;;;;;;5028229;28;20017;-55
2022/01/25 14:07:47;;;;;;;53.45;27.92;;;;;;;;;;5030703;28;20021;-54
2022/01/25 14:10:21;;;;;;;43.92;23.42;;;;;;;;;;5039055;28;20032;-54
2022/01/25 14:23:51;;;;;;;69.03;30.77;;;;;;;;;;5051851;28;20432;-54
2022/01/25 14:26:18;;;;;;;63.85;27.77;;;;;;;;;;5052465;28;20100;-57
2022/01/25 14:29:01;;;;;;;51.05;26.42;;;;;;;;;;5052492;28;20114;-52
2022/01/25 14:31:27;;;;;;;45.88;24.40;;;;;;;;;;5051449;28;20035;-55
2022/01/25 14:33:56;;;;;;;39.95;21.40;;;;;;;;;;5052324;28;20042;-54
2022/01/25 14:36:24;;;;;;;47.92;23.10;;;;;;;;;;5052172;28;20488;-53
2022/01/25 14:38:52;;;;;;;61.88;26.05;;;;;;;;;;5052169;28;20108;-53
2022/01/25 14:41:38;;;;;;;59.45;25.98;;;;;;;;;;5051874;28;20552;-53
2022/01/25 14:44:11;;;;;;;57.63;25.00;;;;;;;;;;5052288;28;20079;-56
2022/01/25 14:46:43;;;;;;;40.38;22.33;;;;;;;;;;5052300;28;20070;-53
2022/01/25 14:49:16;;;;;;;38.28;22.58;;;;;;;;;;5050253;28;20040;-52
2022/01/25 14:51:44;;;;;;;38.30;20.33;;;;;;;;;;5052228;28;20388;-55
2022/01/25 14:54:13;;;;;;;36.38;20.25;;;;;;;;;;5052228;28;20021;-56
2022/01/25 14:56:56;;;;;;;34.15;18.45;;;;;;;;;;5052390;28;20040;-54
2022/01/25 14:59:27;;;;;;;34.60;20.02;;;;;;;;;;5052019;28;20473;-54
2022/01/25 15:02:05;;;;;;;42.50;22.35;;;;;;;;;;5052124;28;20067;-55
2022/01/25 15:04:37;;;;;;;40.35;20.15;;;;;;;;;;5050026;28;20029;-56
2022/01/25 15:07:04;;;;;;;43.40;19.63;;;;;;;;;;5051685;28;20123;-57
2022/01/25 15:09:30;;;;;;;34.60;17.98;;;;;;;;;;5052010;28;20036;-56
2022/01/25 15:11:56;;;;;;;37.28;20.13;;;;;;;;;;5051974;28;20068;-56
2022/01/25 15:14:24;;;;;;;36.63;20.80;;;;;;;;;;5050974;28;20025;-53
2022/01/25 15:16:50;;;;;;;38.40;21.55;;;;;;;;;;5051988;28;20027;-53
2022/01/25 15:19:20;;;;;;;46.10;21.27;;;;;;;;;;5052072;28;20017;-55
2022/01/25 15:21:50;;;;;;;34.38;19.38;;;;;;;;;;5049789;28;20036;-55
2022/01/25 15:24:17;;;;;;;32.42;17.58;;;;;;;;;;5051356;28;20094;-56
2022/01/25 15:26:46;;;;;;;29.60;16.05;;;;;;;;;;5051188;28;20017;-53
2022/01/25 15:29:21;;;;;;;33.15;17.25;;;;;;;;;;5051621;28;20416;-56
2022/01/25 15:31:47;;;;;;;37.33;17.80;;;;;;;;;;5052028;28;20373;-56
2022/01/25 15:34:13;;;;;;;54.55;21.60;;;;;;;;;;5051871;28;20116;-55
2022/01/25 15:36:40;;;;;;;39.97;20.83;;;;;;;;;;5051968;28;20374;-55
2022/01/25 15:39:06;;;;;;;44.47;24.67;;;;;;;;;;5051605;28;20025;-53
2022/01/25 15:41:34;;;;;;;41.25;22.35;;;;;;;;;;5051761;28;20100;-56
2022/01/25 15:44:01;;;;;;;47.97;24.95;;;;;;;;;;5051726;28;20032;-57
2022/01/25 15:46:34;;;;;;;54.83;26.27;;;;;;;;;;5051769;28;20017;-55
2022/01/25 15:49:02;;;;;;;52.90;26.83;;;;;;;;;;5050113;28;20017;-54
2022/01/25 15:51:28;;;;;;;66.88;35.50;;;;;;;;;;5051737;28;20388;-56
2022/01/25 15:53:55;;;;;;;71.55;38.40;;;;;;;;;;5051835;28;20028;-56
2022/01/25 15:56:22;;;;;;;71.95;37.33;;;;;;;;;;5055677;28;20483;-56
2022/01/25 15:58:48;;;;;;;70.72;37.83;;;;;;;;;;5055424;28;20052;-56
2022/01/25 16:01:14;;;;;;;90.55;46.22;;;;;;;;;;5054574;28;20032;-54
2022/01/25 16:03:42;;;;;;;116.45;54.80;;;;;;;;;;5054981;28;20025;-56
2022/01/25 16:06:09;;;;;;;121.82;53.65;;;;;;;;;;5055671;28;20032;-58
2022/01/25 16:08:36;;;;;;;128.25;56.35;;;;;;;;;;5055254;28;20090;-56
2022/01/25 16:11:04;;;;;;;111.45;48.17;;;;;;;;;;5049634;28;20076;-56
2022/01/25 16:13:30;;;;;;;97.75;42.13;;;;;;;;;;5024333;28;20029;-52
2022/01/25 16:15:57;;;;;;;89.70;39.13;;;;;;;;;;5023980;28;20040;-55
2022/01/25 16:18:23;;;;;;;81.80;38.47;;;;;;;;;;5022998;28;20029;-54
2022/01/25 16:20:49;;;;;;;73.25;34.30;;;;;;;;;;5022914;28;20028;-52
2022/01/25 16:23:17;;;;;;;70.85;36.75;;;;;;;;;;5022696;28;20025;-52
2022/01/25 16:25:44;;;;;;;67.47;35.00;;;;;;;;;;5022907;28;20374;-52
2022/01/25 16:28:10;;;;;;;98.13;44.30;;;;;;;;;;5022420;28;20124;-55
2022/01/25 16:30:36;;;;;;;78.88;38.20;;;;;;;;;;5022780;28;20030;-52
2022/01/25 16:33:03;;;;;;;83.05;38.63;;;;;;;;;;5023575;28;20029;-53
2022/01/25 16:35:29;;;;;;;86.97;39.83;;;;;;;;;;5023065;28;20114;-54